Currently 58°F in Riverside (Presidential Park), California, USA
58°F
70°F / 38°F
calm
0.00"
Friday, January 27, 2023 6:42 PM PST

Riverside (Presidential Park), California Weather Summary
Last 36 Hours

Temperature Winds Hourly Humidity Dewpoint
Time Report Norm Report Norm Max Gusts Precip. Rpt. Norm Rpt. Norm Pressure
1Fri 06:42 PM  57.9°F  60°F  calm  3 mph  3 mph  0.00"  38%  47%  32°F  39°F  29.96"
Fri 06:00 PM  61.3°F  62°F  calm  3 mph  9 mph  0.00"  32%  43%  30°F  39°F  29.97"
Fri 05:00 PM  66.1°F  65°F  5 mph SW  4 mph  9 mph  0.00"  30%  38%  32°F  38°F  29.96"
Fri 04:00 PM  68.4°F  67°F  4 mph W  5 mph  10 mph  0.00"  24%  36%  28°F  38°F  29.97"
Fri 03:00 PM  68.4°F  67°F  2 mph NW  5 mph  7 mph  0.00"  21%  35%  25°F  37°F  29.98"
2Fri 02:19 PM  70.1°F  68°F  1 mph W  5 mph  5 mph  ----  19%  34%  24°F  37°F  29.99"
Fri 02:00 PM  68.2°F  67°F  1 mph SW  5 mph  7 mph  0.00"  19%  35%  23°F  38°F  30.00"
Fri 01:00 PM  68.5°F  67°F  4 mph W  5 mph  8 mph  0.00"  20%  35%  25°F  38°F  30.03"
Fri 12:00 PM  66.6°F  66°F  3 mph NE  4 mph  6 mph  0.00"  28%  39%  31°F  39°F  30.09"
Fri 11:00 AM  61.2°F  63°F  calm  3 mph  5 mph  0.00"  35%  44%  32°F  40°F  30.14"
Fri 10:00 AM  56.1°F  60°F  calm  3 mph  4 mph  0.00"  44%  51%  34°F  41°F  30.18"
Fri 09:00 AM  49.1°F  55°F  calm  3 mph  4 mph  0.00"  55%  59%  33°F  40°F  30.20"
Fri 08:00 AM  41.2°F  50°F  1 mph E  2 mph  4 mph  0.00"  65%  66%  30°F  38°F  30.20"
Fri 07:00 AM  38.8°F  48°F  calm  2 mph  3 mph  0.00"  66%  67%  28°F  37°F  30.22"
3Fri 06:32 AM  38.4°F  48°F  calm  2 mph  3 mph  ----  65%  67%  27°F  37°F  30.22"
Fri 06:00 AM  38.5°F  48°F  calm  2 mph  3 mph  0.00"  64%  67%  27°F  37°F  30.22"
Fri 05:00 AM  39.1°F  49°F  calm  2 mph  2 mph  0.00"  62%  67%  27°F  38°F  30.22"
Fri 04:00 AM  40.0°F  49°F  calm  2 mph  3 mph  0.00"  61%  66%  27°F  38°F  30.22"
Fri 03:00 AM  41.3°F  50°F  2 mph E  2 mph  3 mph  0.00"  58%  65%  27°F  38°F  30.24"
Fri 02:00 AM  42.9°F  51°F  calm  1 mph  2 mph  0.00"  55%  64%  27°F  38°F  30.26"
Fri 01:00 AM  44.9°F  51°F  calm  2 mph  5 mph  0.00"  50%  63%  27°F  38°F  30.27"
Fri 12:00 AM  48.0°F  52°F  calm  2 mph  6 mph  0.00"  47%  61%  28°F  38°F  30.28"
Thu 11:00 PM  47.2°F  53°F  calm  2 mph  9 mph  0.00"  47%  59%  27°F  39°F  30.28"
Thu 10:00 PM  48.9°F  54°F  1 mph E  2 mph  6 mph  0.00"  44%  57%  27°F  39°F  30.29"
Thu 09:00 PM  50.7°F  56°F  2 mph S  2 mph  6 mph  0.00"  43%  54%  28°F  39°F  30.27"
Thu 08:00 PM  56.3°F  58°F  2 mph SE  2 mph  7 mph  0.00"  34%  51%  27°F  39°F  30.27"
Thu 07:00 PM  59.5°F  60°F  2 mph E  3 mph  12 mph  0.00"  26%  47%  23°F  39°F  30.29"
Thu 06:00 PM  61.0°F  62°F  1 mph W  4 mph  22 mph  0.00"  23%  43%  21°F  38°F  30.29"
Thu 05:00 PM  63.4°F  65°F  9 mph NW  5 mph  25 mph  0.00"  21%  38%  21°F  38°F  30.27"
Thu 04:00 PM  64.9°F  67°F  10 mph SW  5 mph  26 mph  0.00"  21%  35%  22°F  38°F  30.27"
Thu 03:00 PM  65.0°F  68°F  10 mph SW  5 mph  29 mph  0.00"  21%  34%  22°F  37°F  30.26"
Thu 02:00 PM  64.6°F  67°F  8 mph W  5 mph  29 mph  0.00"  22%  34%  23°F  37°F  30.27"
Thu 01:00 PM  65.2°F  67°F  11 mph W  5 mph  27 mph  0.00"  23%  35%  25°F  38°F  30.29"
Thu 12:00 PM  64.8°F  66°F  7 mph W  4 mph  18 mph  0.00"  22%  38%  24°F  38°F  30.33"
Thu 11:00 AM  63.4°F  63°F  9 mph SW  3 mph  23 mph  0.00"  24%  43%  24°F  39°F  30.36"
Thu 10:00 AM  61.9°F  60°F  10 mph SW  3 mph  33 mph  0.00"  25%  50%  24°F  40°F  30.36"
Thu 09:00 AM  60.0°F  55°F  11 mph W  2 mph  25 mph  0.00"  27%  59%  24°F  40°F  30.38"
Thu 08:00 AM  58.1°F  50°F  7 mph NW  2 mph  19 mph  0.00"  29%  66%  25°F  38°F  30.36"
Thu 07:00 AM  56.7°F  48°F  10 mph NE  2 mph  19 mph  0.00"  31%  67%  25°F  37°F  30.36"

  1. Current weather data. No green row appears if the current weather data is also the high or low for the current day.
  2. High temperature for the current day.
  3. Low temperature for the current day.

The Riverside (Presidential Park), California weather pages are a service of WeatherCurrents.
Copyright ©2023  WeatherCurrents. All rights reserved. - Submit questions and comments - Privacy Policy

This page automatically refreshes every 10 minutes.